createdAt,value
2023-03-18T00:01:35.918Z,24.90
2023-03-18T00:04:04.684Z,25.50
2023-03-18T00:06:32.876Z,19.80
2023-03-18T00:09:02.565Z,24.30
2023-03-18T00:11:31.854Z,25.60
2023-03-18T00:14:00.450Z,22.60
2023-03-18T00:16:32.571Z,22.30
2023-03-18T00:19:02.904Z,25.40
2023-03-18T00:21:31.848Z,24.30
2023-03-18T00:24:00.957Z,22.70
2023-03-18T00:26:29.987Z,24.70
2023-03-18T00:28:58.772Z,24.20
2023-03-18T00:31:27.995Z,23.00
2023-03-18T00:33:59.082Z,29.30
2023-03-18T00:36:27.591Z,23.70
2023-03-18T00:38:57.768Z,22.00
2023-03-18T00:41:30.822Z,23.00
2023-03-18T00:43:59.625Z,22.80
2023-03-18T00:46:31.836Z,23.50
2023-03-18T00:49:02.884Z,24.30
2023-03-18T00:51:34.446Z,21.60
2023-03-18T00:54:07.474Z,23.70
2023-03-18T00:56:37.775Z,22.20
2023-03-18T00:59:06.880Z,20.20
2023-03-18T01:01:36.782Z,27.50
2023-03-18T01:04:06.377Z,22.60
2023-03-18T01:06:36.145Z,24.20
2023-03-18T01:09:05.383Z,23.30
2023-03-18T01:11:33.534Z,23.70
2023-03-18T01:14:02.352Z,26.90
2023-03-18T01:16:31.517Z,26.30
2023-03-18T01:19:00.443Z,27.70
2023-03-18T01:21:28.741Z,23.30
2023-03-18T01:24:00.817Z,24.90
2023-03-18T01:26:30.276Z,24.20
2023-03-18T01:28:59.855Z,23.50
2023-03-18T01:31:29.989Z,26.30
2023-03-18T01:34:02.388Z,32.60
2023-03-18T01:36:39.107Z,26.60
2023-03-18T01:39:10.818Z,27.00
2023-03-18T01:41:40.486Z,24.80
2023-03-18T01:44:19.257Z,21.80
2023-03-18T01:46:50.170Z,22.10
2023-03-18T01:49:24.236Z,24.50
2023-03-18T01:52:03.796Z,22.70
2023-03-18T01:54:34.587Z,22.50
2023-03-18T01:57:07.712Z,24.80
2023-03-18T01:59:38.850Z,23.40
2023-03-18T02:02:14.709Z,23.80
2023-03-18T02:04:55.484Z,24.80
2023-03-18T02:07:26.623Z,26.60
2023-03-18T02:09:57.803Z,28.90
2023-03-18T02:12:33.592Z,26.30
2023-03-18T02:15:03.823Z,27.50
2023-03-18T02:17:37.517Z,25.80
2023-03-18T02:20:30.476Z,28.10
2023-03-18T02:23:07.997Z,24.90
2023-03-18T02:25:55.785Z,29.90
2023-03-18T02:28:25.844Z,30.10
2023-03-18T02:30:56.782Z,29.20
2023-03-18T02:33:28.325Z,31.10
2023-03-18T02:36:03.509Z,33.00
2023-03-18T02:41:01.651Z,32.00
2023-03-18T02:43:37.527Z,31.60
2023-03-18T02:46:08.090Z,30.70
2023-03-18T02:48:39.542Z,32.80
2023-03-18T02:51:09.121Z,34.90
2023-03-18T02:53:40.166Z,36.80
2023-03-18T02:56:08.506Z,31.50
2023-03-18T02:58:37.174Z,36.00
2023-03-18T03:01:08.397Z,31.50
2023-03-18T03:03:37.260Z,34.40
2023-03-18T03:06:08.989Z,33.40
2023-03-18T03:08:38.875Z,35.70
2023-03-18T03:11:08.625Z,36.80
2023-03-18T03:13:40.081Z,36.80
2023-03-18T03:16:10.994Z,33.20
2023-03-18T03:18:39.171Z,33.50
2023-03-18T03:21:08.923Z,34.80
2023-03-18T03:23:37.874Z,38.20
2023-03-18T03:26:07.539Z,36.70
2023-03-18T03:28:37.459Z,38.30
2023-03-18T03:31:06.994Z,37.40
2023-03-18T03:33:41.880Z,38.00
2023-03-18T03:36:15.746Z,38.70
2023-03-18T03:38:45.849Z,36.40
2023-03-18T03:41:16.314Z,37.50
2023-03-18T03:43:45.072Z,37.40
2023-03-18T03:46:13.282Z,40.80
2023-03-18T03:48:42.750Z,45.90
2023-03-18T03:51:18.489Z,43.90
2023-03-18T03:53:47.367Z,35.90
2023-03-18T03:56:15.798Z,40.00
2023-03-18T03:58:45.971Z,43.50
2023-03-18T04:01:14.461Z,37.30
2023-03-18T04:03:44.499Z,40.60
2023-03-18T04:06:13.390Z,38.80
2023-03-18T04:08:47.753Z,41.20
2023-03-18T04:11:17.389Z,44.50
2023-03-18T04:13:45.758Z,42.50
2023-03-18T04:18:50.962Z,33.10
2023-03-18T04:21:23.436Z,35.30
2023-03-18T04:23:55.228Z,42.00
2023-03-18T04:26:24.124Z,39.60
2023-03-18T04:28:57.898Z,38.50
2023-03-18T04:31:27.318Z,39.10
2023-03-18T04:33:56.130Z,39.20
2023-03-18T04:36:25.188Z,43.90
2023-03-18T04:38:54.531Z,42.80
2023-03-18T04:41:23.346Z,41.40
2023-03-18T04:43:52.065Z,42.70
2023-03-18T04:46:21.096Z,38.90
2023-03-18T04:48:49.709Z,37.70
2023-03-18T04:51:18.889Z,40.50
2023-03-18T04:53:50.021Z,55.40
2023-03-18T04:56:18.852Z,39.70
2023-03-18T04:58:50.971Z,42.50
2023-03-18T05:01:22.552Z,40.60
2023-03-18T05:03:51.345Z,41.50
2023-03-18T05:06:25.576Z,39.30
2023-03-18T05:09:00.820Z,39.60
2023-03-18T05:11:33.917Z,40.40
2023-03-18T05:14:09.898Z,46.60
2023-03-18T05:16:47.320Z,39.20
2023-03-18T05:19:19.931Z,42.60
2023-03-18T05:21:58.711Z,45.10
2023-03-18T05:24:27.440Z,40.60
2023-03-18T05:27:00.239Z,43.80
2023-03-18T05:29:34.988Z,46.30
2023-03-18T05:32:20.328Z,38.90
2023-03-18T05:34:52.840Z,40.00
2023-03-18T05:37:21.841Z,45.50
2023-03-18T05:39:58.741Z,46.90
2023-03-18T05:42:28.995Z,47.50
2023-03-18T05:45:03.854Z,43.40
2023-03-18T05:47:33.163Z,46.90
2023-03-18T05:50:07.668Z,44.10
2023-03-18T05:52:38.345Z,48.40
2023-03-18T05:55:13.305Z,54.00
2023-03-18T05:57:43.584Z,47.80
2023-03-18T06:00:13.648Z,47.50
2023-03-18T06:02:46.350Z,46.90
2023-03-18T06:05:16.055Z,45.40
2023-03-18T06:07:47.239Z,48.00
2023-03-18T06:10:17.640Z,46.20
2023-03-18T06:12:47.870Z,48.00
2023-03-18T06:15:19.007Z,48.20
2023-03-18T06:17:47.722Z,49.90
2023-03-18T06:20:16.140Z,52.00
2023-03-18T06:22:49.089Z,48.60
2023-03-18T06:25:23.153Z,48.20
2023-03-18T06:27:53.552Z,45.30
2023-03-18T06:30:25.250Z,47.20
2023-03-18T06:32:57.431Z,39.70
2023-03-18T06:35:33.538Z,44.30
2023-03-18T06:38:03.294Z,51.50
2023-03-18T06:40:32.945Z,44.80
2023-03-18T06:43:01.577Z,43.70
2023-03-18T06:45:38.443Z,40.90
2023-03-18T06:48:09.939Z,43.70
2023-03-18T06:50:42.332Z,39.30
2023-03-18T06:53:19.282Z,41.50
2023-03-18T06:55:49.856Z,48.90
2023-03-18T06:58:19.971Z,41.10
2023-03-18T07:00:59.161Z,42.10
2023-03-18T07:03:33.719Z,43.00
2023-03-18T07:06:08.103Z,42.80
2023-03-18T07:08:39.006Z,44.00
2023-03-18T07:11:07.906Z,39.20
2023-03-18T07:13:38.071Z,37.50
2023-03-18T07:16:08.702Z,38.40
2023-03-18T07:18:38.288Z,37.40
2023-03-18T07:21:11.575Z,39.10
2023-03-18T07:23:41.175Z,40.50
2023-03-18T07:26:10.010Z,35.10
2023-03-18T07:28:39.787Z,38.10
2023-03-18T07:31:09.058Z,38.00
2023-03-18T07:33:39.005Z,37.80
2023-03-18T07:36:07.623Z,39.60
2023-03-18T07:38:35.892Z,39.40
2023-03-18T07:41:06.245Z,35.80
2023-03-18T07:43:36.995Z,35.60
2023-03-18T07:46:06.746Z,37.30
2023-03-18T07:48:35.019Z,34.70
2023-03-18T07:51:03.433Z,39.90
2023-03-18T07:53:33.993Z,39.40
2023-03-18T07:56:03.948Z,35.20
2023-03-18T07:58:38.822Z,32.20
2023-03-18T08:01:07.847Z,32.40
2023-03-18T08:03:36.226Z,29.80
2023-03-18T08:06:06.195Z,36.80
2023-03-18T08:08:34.975Z,34.80
2023-03-18T08:11:06.607Z,36.20
2023-03-18T08:13:38.922Z,38.40
2023-03-18T08:16:07.575Z,38.10
2023-03-18T08:18:38.215Z,34.50
2023-03-18T08:21:07.929Z,32.50
2023-03-18T08:23:36.559Z,33.40
2023-03-18T08:26:05.048Z,34.20
2023-03-18T08:28:34.885Z,32.10
2023-03-18T08:31:11.206Z,38.90
2023-03-18T08:33:39.649Z,39.10
2023-03-18T08:36:08.758Z,33.00
2023-03-18T08:38:42.253Z,37.80
2023-03-18T08:41:10.899Z,36.90
2023-03-18T08:43:39.367Z,36.10
2023-03-18T08:46:07.944Z,33.80
2023-03-18T08:48:36.617Z,38.70
2023-03-18T08:51:10.939Z,34.30
2023-03-18T08:53:42.894Z,33.20
2023-03-18T08:56:14.930Z,35.80
2023-03-18T08:58:46.001Z,36.40
2023-03-18T09:01:14.729Z,36.20
2023-03-18T09:03:44.841Z,33.70
2023-03-18T09:06:15.096Z,32.10
2023-03-18T09:08:47.376Z,35.70
2023-03-18T09:11:18.762Z,34.00
2023-03-18T09:13:47.121Z,34.50
2023-03-18T09:16:15.445Z,32.20
2023-03-18T09:18:45.574Z,27.70
2023-03-18T09:21:16.049Z,31.30
2023-03-18T09:23:46.280Z,28.70
2023-03-18T09:26:15.030Z,30.40
2023-03-18T09:28:43.246Z,28.20
2023-03-18T09:31:14.016Z,27.50
2023-03-18T09:33:43.519Z,28.10
2023-03-18T09:36:14.100Z,27.80
2023-03-18T09:38:44.115Z,29.40
2023-03-18T09:41:30.788Z,27.80
2023-03-18T09:44:08.585Z,29.80
2023-03-18T09:46:49.358Z,27.60
2023-03-18T09:49:37.079Z,24.00
2023-03-18T09:52:24.041Z,26.50
2023-03-18T09:55:12.833Z,27.90
2023-03-18T09:57:46.419Z,21.90
2023-03-18T10:00:24.997Z,22.40
2023-03-18T10:02:56.565Z,25.00
2023-03-18T10:05:32.918Z,24.30
2023-03-18T10:08:12.417Z,23.20
2023-03-18T10:10:42.376Z,24.80
2023-03-18T10:13:15.503Z,25.90
2023-03-18T10:15:45.988Z,25.20
2023-03-18T10:18:28.155Z,28.30
2023-03-18T10:21:05.147Z,25.50
2023-03-18T10:23:55.427Z,22.90
2023-03-18T10:26:38.848Z,25.00
2023-03-18T10:29:24.694Z,25.80
2023-03-18T10:32:42.619Z,23.50
2023-03-18T10:35:39.200Z,26.40
2023-03-18T10:38:29.642Z,24.00
2023-03-18T10:40:58.365Z,28.30
2023-03-18T10:43:29.349Z,27.50
2023-03-18T10:46:03.066Z,26.90
2023-03-18T10:48:36.734Z,25.30
2023-03-18T10:51:08.490Z,26.80
2023-03-18T10:54:04.066Z,25.40
2023-03-18T10:56:33.600Z,29.30
2023-03-18T10:59:02.278Z,27.00
2023-03-18T11:01:31.340Z,24.30
2023-03-18T11:04:09.097Z,21.90
2023-03-18T11:06:47.020Z,22.30
2023-03-18T11:09:18.743Z,25.90
2023-03-18T11:11:50.245Z,26.60
2023-03-18T11:14:22.603Z,25.80
2023-03-18T11:16:59.791Z,19.50
2023-03-18T11:19:43.129Z,20.00
2023-03-18T11:22:22.928Z,18.10
2023-03-18T11:25:18.204Z,18.80
2023-03-18T11:28:04.251Z,18.80
2023-03-18T11:31:02.359Z,22.50
2023-03-18T11:33:33.428Z,20.30
2023-03-18T11:36:06.747Z,20.80
2023-03-18T11:38:36.947Z,20.10
2023-03-18T11:41:09.042Z,19.70
2023-03-18T11:43:38.423Z,18.90
2023-03-18T11:46:09.828Z,20.70
2023-03-18T11:48:39.905Z,20.20
2023-03-18T11:51:30.674Z,20.10
2023-03-18T11:54:21.764Z,21.70
2023-03-18T11:57:01.728Z,22.50
2023-03-18T12:00:05.460Z,21.00
2023-03-18T12:03:19.590Z,22.20
2023-03-18T12:06:10.785Z,20.70
2023-03-18T12:09:01.153Z,20.70
2023-03-18T12:11:39.659Z,19.20
2023-03-18T12:14:13.680Z,19.80
2023-03-18T12:19:32.386Z,19.10
2023-03-18T12:22:01.189Z,18.20
2023-03-18T12:24:54.949Z,20.20
2023-03-18T12:27:58.754Z,18.90
2023-03-18T12:30:47.268Z,18.00
2023-03-18T12:33:19.136Z,15.90
2023-03-18T12:35:56.615Z,15.40
2023-03-18T12:38:31.576Z,14.70
2023-03-18T12:41:27.969Z,17.80
2023-03-18T12:44:02.530Z,18.40
2023-03-18T12:46:47.088Z,17.60
2023-03-18T12:49:25.353Z,14.00
2023-03-18T12:52:07.863Z,18.70
2023-03-18T12:54:40.013Z,17.90
2023-03-18T12:57:19.971Z,22.70
2023-03-18T12:59:56.428Z,18.90
2023-03-18T13:02:38.891Z,19.00
2023-03-18T13:05:18.558Z,18.30
2023-03-18T13:08:01.780Z,20.20
2023-03-18T13:10:31.204Z,19.60
2023-03-18T13:13:00.050Z,19.50
2023-03-18T13:15:37.278Z,20.30
2023-03-18T13:18:25.492Z,24.60
2023-03-18T13:20:57.579Z,17.70
2023-03-18T13:23:55.293Z,16.40
2023-03-18T13:26:32.727Z,16.70
2023-03-18T13:29:04.734Z,16.50
2023-03-18T13:32:05.818Z,17.50
2023-03-18T13:34:47.535Z,15.80
2023-03-18T13:37:27.240Z,16.50
2023-03-18T13:40:16.697Z,14.40
2023-03-18T13:42:45.794Z,17.60
2023-03-18T13:45:32.436Z,17.40
2023-03-18T13:48:09.929Z,18.70
2023-03-18T13:50:41.090Z,17.70
2023-03-18T13:53:19.432Z,19.00
2023-03-18T13:56:13.080Z,18.00
2023-03-18T13:58:47.773Z,16.30
2023-03-18T14:01:27.235Z,17.70
2023-03-18T14:03:57.636Z,16.70
2023-03-18T14:06:35.014Z,18.20
2023-03-18T14:09:28.271Z,16.60
2023-03-18T14:12:13.973Z,17.90
2023-03-18T14:14:53.025Z,19.10
2023-03-18T14:17:26.742Z,16.10
2023-03-18T14:19:56.230Z,19.50
2023-03-18T14:22:36.600Z,20.40
2023-03-18T14:25:11.290Z,19.90
2023-03-18T14:27:51.421Z,19.40
2023-03-18T14:30:34.989Z,19.80
2023-03-18T14:33:05.430Z,18.60
2023-03-18T14:35:35.418Z,21.10
2023-03-18T14:38:21.132Z,22.60
2023-03-18T14:40:51.693Z,22.90
2023-03-18T14:43:40.625Z,23.40
2023-03-18T14:46:17.681Z,25.20
2023-03-18T14:48:52.558Z,24.50
2023-03-18T14:51:21.654Z,22.80
2023-03-18T14:54:04.112Z,21.10
2023-03-18T14:56:42.227Z,19.10
2023-03-18T14:59:18.105Z,19.20
2023-03-18T15:01:50.841Z,20.60
2023-03-18T15:04:24.139Z,18.00
2023-03-18T15:06:55.937Z,20.00
2023-03-18T15:09:28.428Z,18.80
2023-03-18T15:11:59.896Z,18.00
2023-03-18T15:14:31.593Z,17.70
2023-03-18T15:17:01.462Z,18.60
2023-03-18T15:19:30.723Z,18.50
2023-03-18T15:22:03.646Z,16.30
2023-03-18T15:24:32.635Z,13.60
2023-03-18T15:27:15.237Z,12.70
2023-03-18T15:29:55.988Z,15.60
2023-03-18T15:32:31.661Z,13.80
2023-03-18T15:35:34.672Z,14.90
2023-03-18T15:38:16.922Z,16.50
2023-03-18T15:41:21.758Z,19.50
2023-03-18T15:43:51.729Z,17.80
2023-03-18T15:46:32.372Z,15.60
2023-03-18T15:49:02.900Z,16.60
2023-03-18T15:51:40.352Z,16.70
2023-03-18T15:54:29.915Z,18.80
2023-03-18T15:57:11.445Z,19.20
2023-03-18T15:59:40.573Z,15.50
2023-03-18T16:02:15.782Z,15.90
2023-03-18T16:04:49.127Z,16.10
2023-03-18T16:07:19.196Z,17.60
2023-03-18T16:09:47.397Z,18.70
2023-03-18T16:12:22.575Z,17.80
2023-03-18T16:14:53.973Z,17.60
2023-03-18T16:17:22.654Z,22.10
2023-03-18T16:19:55.330Z,20.70
2023-03-18T16:22:23.569Z,17.60
2023-03-18T16:24:52.949Z,18.90
2023-03-18T16:27:40.938Z,17.90
2023-03-18T16:30:28.544Z,15.40
2023-03-18T16:32:57.466Z,17.30
2023-03-18T16:35:33.573Z,16.40
2023-03-18T16:38:02.287Z,17.60
2023-03-18T16:40:35.276Z,19.70
2023-03-18T16:43:03.711Z,15.70
2023-03-18T16:45:33.646Z,16.40
2023-03-18T16:48:11.969Z,17.10
2023-03-18T16:50:41.612Z,22.60
2023-03-18T16:53:33.604Z,15.80
2023-03-18T16:56:19.071Z,18.20
2023-03-18T16:58:52.449Z,17.60
2023-03-18T17:01:21.566Z,18.10
2023-03-18T17:03:50.063Z,19.60
2023-03-18T17:06:24.771Z,20.90
2023-03-18T17:08:53.579Z,15.50
2023-03-18T17:11:22.945Z,16.90
2023-03-18T17:13:51.266Z,18.60
2023-03-18T17:16:21.047Z,18.90
2023-03-18T17:18:49.681Z,29.30
2023-03-18T17:21:18.620Z,20.90
2023-03-18T17:23:48.038Z,18.40
2023-03-18T17:26:16.479Z,17.70
2023-03-18T17:28:46.358Z,18.30
2023-03-18T17:31:15.017Z,21.90
2023-03-18T17:33:43.350Z,22.30
2023-03-18T17:36:12.566Z,20.40
2023-03-18T17:38:41.516Z,20.90
2023-03-18T17:41:19.912Z,21.30
2023-03-18T17:43:48.574Z,19.50
2023-03-18T17:46:17.159Z,19.70
2023-03-18T17:48:46.343Z,22.80
2023-03-18T17:51:23.864Z,19.30
2023-03-18T17:53:57.024Z,21.00
2023-03-18T17:56:26.079Z,19.80
2023-03-18T17:58:56.714Z,23.20
2023-03-18T18:01:30.268Z,23.80
2023-03-18T18:03:59.374Z,23.40
2023-03-18T18:06:30.989Z,21.00
2023-03-18T18:09:00.477Z,21.00
2023-03-18T18:11:35.570Z,21.40
2023-03-18T18:14:25.246Z,22.50
2023-03-18T18:16:53.871Z,22.30
2023-03-18T18:19:24.417Z,19.10
2023-03-18T18:21:53.081Z,18.60
2023-03-18T18:24:29.251Z,20.90
2023-03-18T18:26:57.564Z,21.50
2023-03-18T18:29:28.301Z,19.10
2023-03-18T18:31:58.001Z,16.90
2023-03-18T18:34:26.666Z,19.70
2023-03-18T18:36:55.246Z,18.40
2023-03-18T18:39:24.085Z,19.00
2023-03-18T18:41:57.027Z,22.20
2023-03-18T18:44:25.276Z,25.90
2023-03-18T18:46:54.277Z,28.40
2023-03-18T18:49:23.946Z,23.60
2023-03-18T18:51:54.890Z,23.10
2023-03-18T18:54:24.218Z,20.60
2023-03-18T18:56:53.153Z,22.90
2023-03-18T18:59:24.462Z,22.50
2023-03-18T19:01:58.547Z,27.40
2023-03-18T19:04:27.969Z,22.00
2023-03-18T19:06:56.317Z,31.30
2023-03-18T19:09:26.070Z,30.00
2023-03-18T19:11:56.574Z,33.90
2023-03-18T19:14:27.707Z,31.30
2023-03-18T19:16:58.786Z,35.50
2023-03-18T19:19:28.962Z,35.70
2023-03-18T19:22:04.826Z,32.00
2023-03-18T19:24:39.452Z,29.00
2023-03-18T19:27:24.777Z,24.50
2023-03-18T19:29:59.614Z,29.60
2023-03-18T19:32:27.992Z,29.20
2023-03-18T19:35:01.685Z,37.10
2023-03-18T19:37:32.450Z,33.70
2023-03-18T19:40:01.172Z,36.60
2023-03-18T19:42:29.914Z,30.50
2023-03-18T19:45:00.489Z,32.10
2023-03-18T19:47:33.444Z,35.60
2023-03-18T19:50:01.647Z,28.70
2023-03-18T19:52:35.018Z,40.60
2023-03-18T19:55:09.052Z,27.90
2023-03-18T19:57:38.793Z,36.80
2023-03-18T20:00:19.098Z,36.00
2023-03-18T20:02:50.212Z,41.80
2023-03-18T20:05:23.611Z,39.60
2023-03-18T20:07:52.609Z,23.50
2023-03-18T20:10:21.568Z,41.40
2023-03-18T20:12:50.443Z,29.70
2023-03-18T20:15:22.291Z,33.90
2023-03-18T20:17:51.436Z,33.60
2023-03-18T20:20:24.936Z,33.80
2023-03-18T20:22:53.526Z,34.70
2023-03-18T20:25:46.347Z,46.20
2023-03-18T20:28:19.654Z,37.40
2023-03-18T20:30:51.802Z,34.10
2023-03-18T20:33:26.172Z,29.90
2023-03-18T20:35:54.865Z,43.30
2023-03-18T20:38:32.702Z,30.80
2023-03-18T20:41:02.143Z,36.00
2023-03-18T20:43:30.870Z,37.30
2023-03-18T20:46:03.208Z,41.90
2023-03-18T20:48:31.478Z,42.90
2023-03-18T20:51:02.732Z,41.60
2023-03-18T20:53:32.138Z,50.90
2023-03-18T20:56:00.709Z,47.40
2023-03-18T20:58:29.408Z,49.50
2023-03-18T21:00:58.803Z,57.10
2023-03-18T21:03:29.436Z,45.10
2023-03-18T21:05:59.240Z,43.40
2023-03-18T21:08:28.476Z,53.60
2023-03-18T21:11:03.557Z,54.00
2023-03-18T21:13:39.254Z,53.40
2023-03-18T21:16:11.774Z,39.70
2023-03-18T21:18:45.602Z,57.00
2023-03-18T21:21:21.530Z,45.40
2023-03-18T21:23:49.949Z,50.90
2023-03-18T21:26:18.867Z,52.80
2023-03-18T21:28:49.963Z,54.00
2023-03-18T21:31:28.174Z,50.00
2023-03-18T21:33:57.572Z,54.20
2023-03-18T21:36:26.228Z,53.40
2023-03-18T21:38:54.376Z,50.10
2023-03-18T21:41:25.100Z,51.60
2023-03-18T21:43:53.641Z,50.90
2023-03-18T21:46:24.609Z,54.70
2023-03-18T21:48:53.079Z,45.00
2023-03-18T21:51:37.896Z,49.80
2023-03-18T21:54:17.417Z,47.60
2023-03-18T21:56:51.671Z,40.50
2023-03-18T21:59:19.929Z,57.10
2023-03-18T22:01:53.745Z,56.00
2023-03-18T22:04:25.516Z,52.90
2023-03-18T22:06:54.039Z,43.50
2023-03-18T22:09:24.554Z,43.00
2023-03-18T22:11:53.029Z,41.30
2023-03-18T22:14:22.733Z,42.00
2023-03-18T22:16:51.100Z,41.50
2023-03-18T22:19:19.739Z,51.30
2023-03-18T22:21:47.889Z,37.90
2023-03-18T22:24:16.434Z,44.90
2023-03-18T22:26:45.149Z,34.70
2023-03-18T22:29:13.370Z,38.40
2023-03-18T22:31:43.930Z,54.10
2023-03-18T22:34:32.610Z,34.90
2023-03-18T22:37:01.907Z,38.00
2023-03-18T22:39:30.398Z,30.60
2023-03-18T22:41:59.226Z,31.20
2023-03-18T22:44:27.463Z,28.30
2023-03-18T22:46:55.917Z,34.30
2023-03-18T22:49:24.266Z,29.80
2023-03-18T22:51:52.416Z,39.40
2023-03-18T22:54:27.505Z,36.60
2023-03-18T22:56:58.728Z,33.40
2023-03-18T22:59:27.012Z,30.60
2023-03-18T23:01:55.272Z,30.40
2023-03-18T23:04:24.940Z,33.70
2023-03-18T23:06:58.812Z,32.20
2023-03-18T23:09:27.725Z,36.90
2023-03-18T23:11:55.859Z,23.40
2023-03-18T23:14:24.622Z,25.20
2023-03-18T23:16:52.974Z,25.20
2023-03-18T23:19:25.910Z,19.70
2023-03-18T23:21:55.783Z,24.50
2023-03-18T23:24:24.037Z,30.60
2023-03-18T23:26:53.652Z,27.50
2023-03-18T23:29:22.198Z,25.00
2023-03-18T23:31:50.435Z,24.20
2023-03-18T23:34:21.508Z,23.50
2023-03-18T23:36:49.786Z,26.60
2023-03-18T23:39:19.729Z,26.00
2023-03-18T23:41:47.882Z,23.20
2023-03-18T23:44:16.454Z,22.50
2023-03-18T23:46:44.718Z,26.70
2023-03-18T23:49:13.425Z,21.90
2023-03-18T23:51:42.006Z,21.80
2023-03-18T23:54:10.366Z,26.10
2023-03-18T23:56:38.986Z,22.70
2023-03-18T23:59:07.152Z,22.40
